sensor_id;sensor_type;location;lat;lon;timestamp;pressure;altitude;pressure_sealevel;temperature;humidity
7524;BME280;3803;51.666;7.630;2023-03-24T00:00:16;99551.84;;;13.23;69.13
7524;BME280;3803;51.666;7.630;2023-03-24T00:00:37;99542.22;;;13.20;69.01
7524;BME280;3803;51.666;7.630;2023-03-24T00:00:59;99549.22;;;13.24;69.33
7524;BME280;3803;51.666;7.630;2023-03-24T00:01:20;99538.78;;;13.15;69.14
7524;BME280;3803;51.666;7.630;2023-03-24T00:01:41;99539.63;;;13.15;69.24
7524;BME280;3803;51.666;7.630;2023-03-24T00:02:02;99535.28;;;13.14;68.97
7524;BME280;3803;51.666;7.630;2023-03-24T00:02:22;99539.63;;;13.15;69.34
7524;BME280;3803;51.666;7.630;2023-03-24T00:02:43;99560.56;;;13.22;69.14
7524;BME280;3803;51.666;7.630;2023-03-24T00:03:05;99571.03;;;13.28;68.86
7524;BME280;3803;51.666;7.630;2023-03-24T00:03:27;99557.09;;;13.20;69.20
7524;BME280;3803;51.666;7.630;2023-03-24T00:03:48;99545.75;;;13.14;69.03
7524;BME280;3803;51.666;7.630;2023-03-24T00:04:11;99550.09;;;13.19;69.09
7524;BME280;3803;51.666;7.630;2023-03-24T00:04:32;99542.25;;;13.14;69.25
7524;BME280;3803;51.666;7.630;2023-03-24T00:04:54;99544.84;;;13.19;69.08
7524;BME280;3803;51.666;7.630;2023-03-24T00:05:20;99547.47;;;13.14;69.39
7524;BME280;3803;51.666;7.630;2023-03-24T00:05:41;99538.78;;;13.13;69.41
7524;BME280;3803;51.666;7.630;2023-03-24T00:06:03;99543.16;;;13.11;69.32
7524;BME280;3803;51.666;7.630;2023-03-24T00:06:24;99537.88;;;13.14;69.43
7524;BME280;3803;51.666;7.630;2023-03-24T00:06:46;99541.38;;;13.10;69.51
7524;BME280;3803;51.666;7.630;2023-03-24T00:07:09;99541.38;;;13.16;69.26
7524;BME280;3803;51.666;7.630;2023-03-24T00:07:34;99535.25;;;13.13;69.36
7524;BME280;3803;51.666;7.630;2023-03-24T00:07:57;99537.00;;;13.15;69.20
7524;BME280;3803;51.666;7.630;2023-03-24T00:08:22;99543.09;;;13.18;69.53
7524;BME280;3803;51.666;7.630;2023-03-24T00:08:43;99545.72;;;13.22;69.64
7524;BME280;3803;51.666;7.630;2023-03-24T00:09:07;99537.88;;;13.19;69.43
7524;BME280;3803;51.666;7.630;2023-03-24T00:09:29;99536.13;;;13.10;69.63
7524;BME280;3803;51.666;7.630;2023-03-24T00:09:56;99539.63;;;13.15;69.74
7524;BME280;3803;51.666;7.630;2023-03-24T00:10:19;99533.53;;;13.13;69.51
7524;BME280;3803;51.666;7.630;2023-03-24T00:10:44;99537.00;;;13.17;69.52
7524;BME280;3803;51.666;7.630;2023-03-24T00:11:08;99552.72;;;13.20;69.37
7524;BME280;3803;51.666;7.630;2023-03-24T00:11:31;99543.13;;;13.21;69.46
7524;BME280;3803;51.666;7.630;2023-03-24T00:11:56;99541.38;;;13.16;69.61
7524;BME280;3803;51.666;7.630;2023-03-24T00:12:17;99543.13;;;13.21;69.62
7524;BME280;3803;51.666;7.630;2023-03-24T00:12:38;99544.00;;;13.15;69.56
7524;BME280;3803;51.666;7.630;2023-03-24T00:12:59;99543.13;;;13.14;69.52
7524;BME280;3803;51.666;7.630;2023-03-24T00:13:33;99537.88;;;13.18;69.52
7524;BME280;3803;51.666;7.630;2023-03-24T00:13:57;99537.00;;;13.15;69.49
7524;BME280;3803;51.666;7.630;2023-03-24T00:14:18;99531.78;;;13.15;69.59
7524;BME280;3803;51.666;7.630;2023-03-24T00:14:39;99543.13;;;13.19;69.94
7524;BME280;3803;51.666;7.630;2023-03-24T00:15:00;99532.66;;;13.16;69.62
7524;BME280;3803;51.666;7.630;2023-03-24T00:15:21;99522.19;;;13.14;69.41
7524;BME280;3803;51.666;7.630;2023-03-24T00:15:43;99536.13;;;13.16;69.60
7524;BME280;3803;51.666;7.630;2023-03-24T00:16:06;99539.59;;;13.26;69.42
7524;BME280;3803;51.666;7.630;2023-03-24T00:16:28;99530.91;;;13.16;69.53
7524;BME280;3803;51.666;7.630;2023-03-24T00:16:49;99516.94;;;13.14;69.70
7524;BME280;3803;51.666;7.630;2023-03-24T00:17:10;99532.63;;;13.21;69.60
7524;BME280;3803;51.666;7.630;2023-03-24T00:17:37;99532.63;;;13.24;69.38
7524;BME280;3803;51.666;7.630;2023-03-24T00:17:58;99526.53;;;13.17;69.39
7524;BME280;3803;51.666;7.630;2023-03-24T00:18:19;99536.09;;;13.26;69.87
7524;BME280;3803;51.666;7.630;2023-03-24T00:18:41;99522.19;;;13.11;69.93
7524;BME280;3803;51.666;7.630;2023-03-24T00:19:03;99516.94;;;13.14;69.65
7524;BME280;3803;51.666;7.630;2023-03-24T00:19:24;99527.41;;;13.14;69.58
7524;BME280;3803;51.666;7.630;2023-03-24T00:19:45;99531.75;;;13.20;69.55
7524;BME280;3803;51.666;7.630;2023-03-24T00:20:11;99526.53;;;13.23;69.87
7524;BME280;3803;51.666;7.630;2023-03-24T00:20:36;99530.88;;;13.24;69.50
7524;BME280;3803;51.666;7.630;2023-03-24T00:20:57;99534.38;;;13.28;69.71
7524;BME280;3803;51.666;7.630;2023-03-24T00:21:18;99534.34;;;13.25;69.44
7524;BME280;3803;51.666;7.630;2023-03-24T00:21:42;99530.88;;;13.23;69.48
7524;BME280;3803;51.666;7.630;2023-03-24T00:22:04;99525.63;;;13.21;69.39
7524;BME280;3803;51.666;7.630;2023-03-24T00:22:25;99530.91;;;13.20;69.75
7524;BME280;3803;51.666;7.630;2023-03-24T00:22:49;99536.09;;;13.26;69.64
7524;BME280;3803;51.666;7.630;2023-03-24T00:23:16;99523.91;;;13.22;69.58
7524;BME280;3803;51.666;7.630;2023-03-24T00:23:37;99521.25;;;13.26;69.44
7524;BME280;3803;51.666;7.630;2023-03-24T00:23:58;99516.91;;;13.25;69.53
7524;BME280;3803;51.666;7.630;2023-03-24T00:24:20;99524.75;;;13.22;69.84
7524;BME280;3803;51.666;7.630;2023-03-24T00:24:41;99508.19;;;13.23;69.87
7524;BME280;3803;51.666;7.630;2023-03-24T00:25:05;99515.16;;;13.23;69.54
7524;BME280;3803;51.666;7.630;2023-03-24T00:25:28;99511.69;;;13.21;69.59
7524;BME280;3803;51.666;7.630;2023-03-24T00:26:07;99518.66;;;13.23;69.64
7524;BME280;3803;51.666;7.630;2023-03-24T00:26:28;99516.03;;;13.25;69.66
7524;BME280;3803;51.666;7.630;2023-03-24T00:26:49;99528.25;;;13.21;69.73
7524;BME280;3803;51.666;7.630;2023-03-24T00:27:20;99527.38;;;13.28;69.66
7524;BME280;3803;51.666;7.630;2023-03-24T00:27:41;99522.13;;;13.24;69.82
7524;BME280;3803;51.666;7.630;2023-03-24T00:28:04;99509.91;;;13.26;69.37
7524;BME280;3803;51.666;7.630;2023-03-24T00:28:27;99532.59;;;13.30;69.60
7524;BME280;3803;51.666;7.630;2023-03-24T00:28:48;99518.63;;;13.25;69.51
7524;BME280;3803;51.666;7.630;2023-03-24T00:29:09;99522.13;;;13.22;69.46
7524;BME280;3803;51.666;7.630;2023-03-24T00:29:31;99533.47;;;13.30;69.58
7524;BME280;3803;51.666;7.630;2023-03-24T00:29:51;99537.84;;;13.22;69.56
7524;BME280;3803;51.666;7.630;2023-03-24T00:30:12;99525.66;;;13.23;69.67
7524;BME280;3803;51.666;7.630;2023-03-24T00:30:33;99516.03;;;13.28;69.79
7524;BME280;3803;51.666;7.630;2023-03-24T00:30:54;99508.19;;;13.22;69.65
7524;BME280;3803;51.666;7.630;2023-03-24T00:31:16;99524.72;;;13.33;69.65
7524;BME280;3803;51.666;7.630;2023-03-24T00:31:37;99530.88;;;13.29;69.87
7524;BME280;3803;51.666;7.630;2023-03-24T00:31:59;99519.50;;;13.28;69.81
7524;BME280;3803;51.666;7.630;2023-03-24T00:32:20;99516.91;;;13.24;69.83
7524;BME280;3803;51.666;7.630;2023-03-24T00:32:42;99514.28;;;13.18;69.91
7524;BME280;3803;51.666;7.630;2023-03-24T00:33:03;99515.13;;;13.26;69.99
7524;BME280;3803;51.666;7.630;2023-03-24T00:33:23;99502.06;;;13.24;69.79
7524;BME280;3803;51.666;7.630;2023-03-24T00:33:46;99509.06;;;13.27;69.89
7524;BME280;3803;51.666;7.630;2023-03-24T00:34:10;99512.56;;;13.24;69.85
7524;BME280;3803;51.666;7.630;2023-03-24T00:34:32;99502.94;;;13.22;69.70
7524;BME280;3803;51.666;7.630;2023-03-24T00:34:53;99516.03;;;13.25;69.66
7524;BME280;3803;51.666;7.630;2023-03-24T00:35:15;99505.56;;;13.22;69.91
7524;BME280;3803;51.666;7.630;2023-03-24T00:35:37;99511.66;;;13.24;69.66
7524;BME280;3803;51.666;7.630;2023-03-24T00:35:59;99515.13;;;13.26;69.89
7524;BME280;3803;51.666;7.630;2023-03-24T00:36:21;99516.03;;;13.26;69.70
7524;BME280;3803;51.666;7.630;2023-03-24T00:36:42;99501.19;;;13.24;69.65
7524;BME280;3803;51.666;7.630;2023-03-24T00:37:04;99509.06;;;13.27;69.80
7524;BME280;3803;51.666;7.630;2023-03-24T00:37:25;99513.38;;;13.31;69.76
7524;BME280;3803;51.666;7.630;2023-03-24T00:37:46;99511.69;;;13.27;69.46
7524;BME280;3803;51.666;7.630;2023-03-24T00:38:07;99522.13;;;13.36;69.57
7524;BME280;3803;51.666;7.630;2023-03-24T00:38:28;99525.63;;;13.35;69.54
7524;BME280;3803;51.666;7.630;2023-03-24T00:38:49;99510.75;;;13.29;69.61
7524;BME280;3803;51.666;7.630;2023-03-24T00:39:09;99503.78;;;13.30;69.94
7524;BME280;3803;51.666;7.630;2023-03-24T00:39:31;99502.03;;;13.27;69.62
7524;BME280;3803;51.666;7.630;2023-03-24T00:39:52;99508.16;;;13.25;69.73
7524;BME280;3803;51.666;7.630;2023-03-24T00:40:15;99506.38;;;13.33;69.50
7524;BME280;3803;51.666;7.630;2023-03-24T00:40:36;99494.19;;;13.29;69.77
7524;BME280;3803;51.666;7.630;2023-03-24T00:40:57;99500.28;;;13.31;69.38
7524;BME280;3803;51.666;7.630;2023-03-24T00:41:19;99521.22;;;13.34;69.54
7524;BME280;3803;51.666;7.630;2023-03-24T00:41:40;99502.91;;;13.31;69.74
7524;BME280;3803;51.666;7.630;2023-03-24T00:42:05;99502.03;;;13.34;69.41
7524;BME280;3803;51.666;7.630;2023-03-24T00:42:26;99497.66;;;13.34;69.50
7524;BME280;3803;51.666;7.630;2023-03-24T00:42:48;99503.78;;;13.36;69.70
7524;BME280;3803;51.666;7.630;2023-03-24T00:43:09;99503.78;;;13.30;69.57
7524;BME280;3803;51.666;7.630;2023-03-24T00:43:30;99498.56;;;13.30;69.62
7524;BME280;3803;51.666;7.630;2023-03-24T00:43:56;99491.53;;;13.30;69.73
7524;BME280;3803;51.666;7.630;2023-03-24T00:44:17;99504.66;;;13.32;69.92
7524;BME280;3803;51.666;7.630;2023-03-24T00:44:38;99498.56;;;13.32;69.47
7524;BME280;3803;51.666;7.630;2023-03-24T00:44:59;99491.56;;;13.27;69.95
7524;BME280;3803;51.666;7.630;2023-03-24T00:45:21;99511.66;;;13.30;69.96
7524;BME280;3803;51.666;7.630;2023-03-24T00:45:46;99499.41;;;13.32;69.61
7524;BME280;3803;51.666;7.630;2023-03-24T00:46:11;99500.28;;;13.37;69.78
7524;BME280;3803;51.666;7.630;2023-03-24T00:46:33;99491.56;;;13.35;69.83
7524;BME280;3803;51.666;7.630;2023-03-24T00:46:54;99507.25;;;13.37;69.50
7524;BME280;3803;51.666;7.630;2023-03-24T00:47:15;99492.41;;;13.34;69.73
7524;BME280;3803;51.666;7.630;2023-03-24T00:47:37;99492.44;;;13.31;69.82
7524;BME280;3803;51.666;7.630;2023-03-24T00:47:58;99507.25;;;13.37;69.98
7524;BME280;3803;51.666;7.630;2023-03-24T00:48:18;99487.16;;;13.34;69.88
7524;BME280;3803;51.666;7.630;2023-03-24T00:48:40;99494.16;;;13.37;69.79
7524;BME280;3803;51.666;7.630;2023-03-24T00:49:06;99492.44;;;13.31;69.65
7524;BME280;3803;51.666;7.630;2023-03-24T00:49:28;99488.06;;;13.35;69.44
7524;BME280;3803;51.666;7.630;2023-03-24T00:50:07;99494.19;;;13.35;69.64
7524;BME280;3803;51.666;7.630;2023-03-24T00:50:28;99496.75;;;13.41;69.67
7524;BME280;3803;51.666;7.630;2023-03-24T00:50:53;99485.44;;;13.36;69.57
7524;BME280;3803;51.666;7.630;2023-03-24T00:51:13;99505.47;;;13.45;69.52
7524;BME280;3803;51.666;7.630;2023-03-24T00:51:36;99487.16;;;13.34;69.37
7524;BME280;3803;51.666;7.630;2023-03-24T00:51:57;99499.38;;;13.41;69.67
7524;BME280;3803;51.666;7.630;2023-03-24T00:52:21;99481.94;;;13.33;69.78
7524;BME280;3803;51.666;7.630;2023-03-24T00:52:42;99490.69;;;13.36;69.52
7524;BME280;3803;51.666;7.630;2023-03-24T00:53:03;99485.44;;;13.36;69.59
7524;BME280;3803;51.666;7.630;2023-03-24T00:53:24;99478.44;;;13.38;69.42
7524;BME280;3803;51.666;7.630;2023-03-24T00:53:48;99481.94;;;13.36;69.55
7524;BME280;3803;51.666;7.630;2023-03-24T00:54:10;99489.78;;;13.40;69.49
7524;BME280;3803;51.666;7.630;2023-03-24T00:54:31;99481.06;;;13.35;69.52
7524;BME280;3803;51.666;7.630;2023-03-24T00:54:52;99475.81;;;13.37;69.65
7524;BME280;3803;51.666;7.630;2023-03-24T00:55:18;99472.34;;;13.36;69.48
7524;BME280;3803;51.666;7.630;2023-03-24T00:55:46;99470.56;;;13.40;69.71
7524;BME280;3803;51.666;7.630;2023-03-24T00:56:08;99474.06;;;13.37;69.56
7524;BME280;3803;51.666;7.630;2023-03-24T00:56:32;99464.47;;;13.36;69.32
7524;BME280;3803;51.666;7.630;2023-03-24T00:56:55;99479.28;;;13.43;69.47
7524;BME280;3803;51.666;7.630;2023-03-24T00:57:17;99467.91;;;13.41;69.53
7524;BME280;3803;51.666;7.630;2023-03-24T00:57:46;99471.44;;;13.43;69.67
7524;BME280;3803;51.666;7.630;2023-03-24T00:58:14;99482.78;;;13.47;69.43
7524;BME280;3803;51.666;7.630;2023-03-24T00:58:38;99475.78;;;13.43;69.52
7524;BME280;3803;51.666;7.630;2023-03-24T00:58:59;99467.06;;;13.39;69.67
7524;BME280;3803;51.666;7.630;2023-03-24T00:59:21;99459.22;;;13.36;69.47
7524;BME280;3803;51.666;7.630;2023-03-24T00:59:43;99459.22;;;13.38;69.51
7524;BME280;3803;51.666;7.630;2023-03-24T01:00:08;99464.41;;;13.42;69.55
7524;BME280;3803;51.666;7.630;2023-03-24T01:00:33;99453.97;;;13.39;69.52
7524;BME280;3803;51.666;7.630;2023-03-24T01:00:56;99447.88;;;13.39;69.65
7524;BME280;3803;51.666;7.630;2023-03-24T01:01:17;99464.41;;;13.42;69.57
7524;BME280;3803;51.666;7.630;2023-03-24T01:01:41;99474.06;;;13.42;69.42
7524;BME280;3803;51.666;7.630;2023-03-24T01:02:03;99464.44;;;13.39;69.57
7524;BME280;3803;51.666;7.630;2023-03-24T01:02:25;99463.59;;;13.39;69.51
7524;BME280;3803;51.666;7.630;2023-03-24T01:02:48;99460.13;;;13.34;69.96
7524;BME280;3803;51.666;7.630;2023-03-24T01:03:16;99470.53;;;13.43;69.78
7524;BME280;3803;51.666;7.630;2023-03-24T01:03:37;99454.84;;;13.38;69.48
7524;BME280;3803;51.666;7.630;2023-03-24T01:04:07;99466.19;;;13.40;69.98
7524;BME280;3803;51.666;7.630;2023-03-24T01:04:31;99466.22;;;13.39;69.58
7524;BME280;3803;51.666;7.630;2023-03-24T01:04:57;99476.66;;;13.47;70.01
7524;BME280;3803;51.666;7.630;2023-03-24T01:05:26;99464.38;;;13.55;69.62
7524;BME280;3803;51.666;7.630;2023-03-24T01:05:47;99449.56;;;13.48;69.51
7524;BME280;3803;51.666;7.630;2023-03-24T01:06:08;99459.19;;;13.46;69.50
7524;BME280;3803;51.666;7.630;2023-03-24T01:06:30;99451.31;;;13.46;69.78
7524;BME280;3803;51.666;7.630;2023-03-24T01:06:52;99448.69;;;13.46;69.68
7524;BME280;3803;51.666;7.630;2023-03-24T01:07:14;99443.47;;;13.42;69.70
7524;BME280;3803;51.666;7.630;2023-03-24T01:07:38;99453.94;;;13.46;69.70
7524;BME280;3803;51.666;7.630;2023-03-24T01:08:02;99448.69;;;13.49;69.67
7524;BME280;3803;51.666;7.630;2023-03-24T01:08:24;99446.91;;;13.54;69.73
7524;BME280;3803;51.666;7.630;2023-03-24T01:08:45;99443.44;;;13.52;69.65
7524;BME280;3803;51.666;7.630;2023-03-24T01:09:06;99452.13;;;13.60;69.75
7524;BME280;3803;51.666;7.630;2023-03-24T01:09:27;99441.63;;;13.57;69.37
7524;BME280;3803;51.666;7.630;2023-03-24T01:09:48;99446.00;;;13.58;69.28
7524;BME280;3803;51.666;7.630;2023-03-24T01:10:19;99439.91;;;13.56;69.43
7524;BME280;3803;51.666;7.630;2023-03-24T01:10:41;99443.44;;;13.52;69.21
7524;BME280;3803;51.666;7.630;2023-03-24T01:11:12;99436.47;;;13.51;69.67
7524;BME280;3803;51.666;7.630;2023-03-24T01:11:38;99444.25;;;13.57;69.50
7524;BME280;3803;51.666;7.630;2023-03-24T01:12:04;99437.28;;;13.54;69.54
7524;BME280;3803;51.666;7.630;2023-03-24T01:12:26;99448.59;;;13.64;69.29
7524;BME280;3803;51.666;7.630;2023-03-24T01:12:48;99447.72;;;13.64;69.13
7524;BME280;3803;51.666;7.630;2023-03-24T01:13:08;99450.34;;;13.64;69.17
7524;BME280;3803;51.666;7.630;2023-03-24T01:13:29;99440.78;;;13.55;69.26
7524;BME280;3803;51.666;7.630;2023-03-24T01:13:51;99435.53;;;13.56;69.37
7524;BME280;3803;51.666;7.630;2023-03-24T01:14:27;99440.75;;;13.60;69.33
7524;BME280;3803;51.666;7.630;2023-03-24T01:14:49;99436.41;;;13.60;69.08
7524;BME280;3803;51.666;7.630;2023-03-24T01:15:14;99435.50;;;13.61;69.19
7524;BME280;3803;51.666;7.630;2023-03-24T01:15:35;99435.50;;;13.60;69.08
7524;BME280;3803;51.666;7.630;2023-03-24T01:15:56;99440.72;;;13.66;69.14
7524;BME280;3803;51.666;7.630;2023-03-24T01:16:18;99445.97;;;13.64;69.32
7524;BME280;3803;51.666;7.630;2023-03-24T01:16:40;99450.31;;;13.67;69.18
7524;BME280;3803;51.666;7.630;2023-03-24T01:17:01;99441.59;;;13.62;69.35
7524;BME280;3803;51.666;7.630;2023-03-24T01:17:23;99442.47;;;13.68;69.19
7524;BME280;3803;51.666;7.630;2023-03-24T01:17:45;99445.13;;;13.62;69.00
7524;BME280;3803;51.666;7.630;2023-03-24T01:18:08;99436.38;;;13.63;69.13
7524;BME280;3803;51.666;7.630;2023-03-24T01:18:29;99429.34;;;13.65;69.35
7524;BME280;3803;51.666;7.630;2023-03-24T01:18:50;99443.28;;;13.74;69.25
7524;BME280;3803;51.666;7.630;2023-03-24T01:19:11;99425.84;;;13.66;69.10
7524;BME280;3803;51.666;7.630;2023-03-24T01:19:33;99433.78;;;13.60;69.30
7524;BME280;3803;51.666;7.630;2023-03-24T01:19:55;99447.69;;;13.75;68.88
7524;BME280;3803;51.666;7.630;2023-03-24T01:20:16;99444.97;;;13.84;68.73
7524;BME280;3803;51.666;7.630;2023-03-24T01:20:37;99437.19;;;13.75;68.91
7524;BME280;3803;51.666;7.630;2023-03-24T01:21:00;99432.84;;;13.70;69.06
7524;BME280;3803;51.666;7.630;2023-03-24T01:21:20;99430.25;;;13.67;68.78
7524;BME280;3803;51.666;7.630;2023-03-24T01:21:41;99423.22;;;13.66;68.87
7524;BME280;3803;51.666;7.630;2023-03-24T01:22:02;99419.72;;;13.69;68.91
7524;BME280;3803;51.666;7.630;2023-03-24T01:22:28;99413.63;;;13.65;69.13
7524;BME280;3803;51.666;7.630;2023-03-24T01:22:50;99418.88;;;13.67;68.96
7524;BME280;3803;51.666;7.630;2023-03-24T01:23:13;99427.56;;;13.77;69.17
7524;BME280;3803;51.666;7.630;2023-03-24T01:23:34;99414.47;;;13.70;69.22
7524;BME280;3803;51.666;7.630;2023-03-24T01:23:55;99423.22;;;13.71;69.41
7524;BME280;3803;51.666;7.630;2023-03-24T01:24:16;99421.47;;;13.75;69.13
7524;BME280;3803;51.666;7.630;2023-03-24T01:24:37;99420.59;;;13.69;69.01
7524;BME280;3803;51.666;7.630;2023-03-24T01:24:58;99417.09;;;13.70;68.88
7524;BME280;3803;51.666;7.630;2023-03-24T01:25:22;99406.63;;;13.70;69.04
7524;BME280;3803;51.666;7.630;2023-03-24T01:25:42;99417.94;;;13.76;68.94
7524;BME280;3803;51.666;7.630;2023-03-24T01:26:06;99422.31;;;13.75;68.89
7524;BME280;3803;51.666;7.630;2023-03-24T01:26:27;99407.50;;;13.69;69.05
7524;BME280;3803;51.666;7.630;2023-03-24T01:26:48;99423.22;;;13.71;68.85
7524;BME280;3803;51.666;7.630;2023-03-24T01:27:19;99401.38;;;13.70;68.80
7524;BME280;3803;51.666;7.630;2023-03-24T01:27:39;99420.53;;;13.79;68.93
7524;BME280;3803;51.666;7.630;2023-03-24T01:28:00;99411.81;;;13.75;69.04
7524;BME280;3803;51.666;7.630;2023-03-24T01:28:23;99396.16;;;13.67;69.09
7524;BME280;3803;51.666;7.630;2023-03-24T01:28:44;99412.75;;;13.71;69.25
7524;BME280;3803;51.666;7.630;2023-03-24T01:29:05;99411.81;;;13.77;68.98
7524;BME280;3803;51.666;7.630;2023-03-24T01:29:26;99417.94;;;13.76;68.90
7524;BME280;3803;51.666;7.630;2023-03-24T01:29:47;99415.28;;;13.79;68.82
7524;BME280;3803;51.666;7.630;2023-03-24T01:30:13;99403.09;;;13.71;69.10
7524;BME280;3803;51.666;7.630;2023-03-24T01:30:34;99410.97;;;13.75;69.17
7524;BME280;3803;51.666;7.630;2023-03-24T01:30:55;99413.53;;;13.81;69.09
7524;BME280;3803;51.666;7.630;2023-03-24T01:31:16;99422.28;;;13.80;69.10
7524;BME280;3803;51.666;7.630;2023-03-24T01:31:36;99417.03;;;13.81;69.04
7524;BME280;3803;51.666;7.630;2023-03-24T01:31:57;99417.88;;;13.85;68.95
7524;BME280;3803;51.666;7.630;2023-03-24T01:32:18;99413.53;;;13.82;68.92
7524;BME280;3803;51.666;7.630;2023-03-24T01:32:39;99425.72;;;13.88;69.06
7524;BME280;3803;51.666;7.630;2023-03-24T01:32:59;99408.28;;;13.82;68.74
7524;BME280;3803;51.666;7.630;2023-03-24T01:33:21;99424.78;;;13.95;68.89
7524;BME280;3803;51.666;7.630;2023-03-24T01:33:42;99417.81;;;13.93;68.75
7524;BME280;3803;51.666;7.630;2023-03-24T01:34:03;99409.97;;;13.88;68.53
7524;BME280;3803;51.666;7.630;2023-03-24T01:34:24;99401.25;;;13.86;68.15
7524;BME280;3803;51.666;7.630;2023-03-24T01:34:44;99407.31;;;13.93;68.66
7524;BME280;3803;51.666;7.630;2023-03-24T01:35:05;99404.78;;;13.87;68.59
7524;BME280;3803;51.666;7.630;2023-03-24T01:35:26;99417.84;;;13.90;68.27
7524;BME280;3803;51.666;7.630;2023-03-24T01:35:48;99408.19;;;13.93;68.24
7524;BME280;3803;51.666;7.630;2023-03-24T01:36:09;99404.78;;;13.87;68.32
7524;BME280;3803;51.666;7.630;2023-03-24T01:36:29;99404.78;;;13.85;68.27
7524;BME280;3803;51.666;7.630;2023-03-24T01:36:51;99411.75;;;13.86;68.42
7524;BME280;3803;51.666;7.630;2023-03-24T01:37:11;99406.50;;;13.86;68.43
7524;BME280;3803;51.666;7.630;2023-03-24T01:37:32;99396.09;;;13.77;68.58
7524;BME280;3803;51.666;7.630;2023-03-24T01:37:53;99406.53;;;13.83;68.51
7524;BME280;3803;51.666;7.630;2023-03-24T01:38:14;99411.78;;;13.80;68.44
7524;BME280;3803;51.666;7.630;2023-03-24T01:38:35;99406.53;;;13.80;68.75
7524;BME280;3803;51.666;7.630;2023-03-24T01:38:56;99388.25;;;13.72;68.81
7524;BME280;3803;51.666;7.630;2023-03-24T01:39:20;99406.59;;;13.75;68.88
7524;BME280;3803;51.666;7.630;2023-03-24T01:39:40;99412.72;;;13.76;68.90
7524;BME280;3803;51.666;7.630;2023-03-24T01:40:02;99399.63;;;13.69;68.88
7524;BME280;3803;51.666;7.630;2023-03-24T01:40:29;99387.41;;;13.65;69.03
7524;BME280;3803;51.666;7.630;2023-03-24T01:40:50;99403.97;;;13.75;69.06
7524;BME280;3803;51.666;7.630;2023-03-24T01:41:12;99408.31;;;13.76;68.90
7524;BME280;3803;51.666;7.630;2023-03-24T01:41:36;99392.66;;;13.67;69.04
7524;BME280;3803;51.666;7.630;2023-03-24T01:41:57;99411.81;;;13.74;68.91
7524;BME280;3803;51.666;7.630;2023-03-24T01:42:22;99400.50;;;13.71;69.20
7524;BME280;3803;51.666;7.630;2023-03-24T01:42:43;99396.16;;;13.66;69.08
7524;BME280;3803;51.666;7.630;2023-03-24T01:43:06;99387.41;;;13.65;69.06
7524;BME280;3803;51.666;7.630;2023-03-24T01:43:31;99394.41;;;13.68;69.50
7524;BME280;3803;51.666;7.630;2023-03-24T01:43:52;99404.00;;;13.69;69.23
7524;BME280;3803;51.666;7.630;2023-03-24T01:44:42;99411.81;;;13.74;69.27
7524;BME280;3803;51.666;7.630;2023-03-24T01:46:30;99416.22;;;13.73;69.32
7524;BME280;3803;51.666;7.630;2023-03-24T01:46:53;99416.22;;;13.71;69.23
7524;BME280;3803;51.666;7.630;2023-03-24T01:47:14;99399.66;;;13.62;69.60
7524;BME280;3803;51.666;7.630;2023-03-24T01:47:36;99401.41;;;13.64;69.38
7524;BME280;3803;51.666;7.630;2023-03-24T01:47:57;99406.69;;;13.63;69.39
7524;BME280;3803;51.666;7.630;2023-03-24T01:48:40;99410.09;;;13.74;69.29
7524;BME280;3803;51.666;7.630;2023-03-24T01:49:02;99394.44;;;13.65;69.34
7524;BME280;3803;51.666;7.630;2023-03-24T01:49:28;99413.59;;;13.73;69.52
7524;BME280;3803;51.666;7.630;2023-03-24T01:49:53;99397.00;;;13.66;69.38
7524;BME280;3803;51.666;7.630;2023-03-24T01:50:16;99406.63;;;13.72;69.49
7524;BME280;3803;51.666;7.630;2023-03-24T01:50:38;99390.91;;;13.67;69.71
7524;BME280;3803;51.666;7.630;2023-03-24T01:51:08;99391.78;;;13.68;69.32
7524;BME280;3803;51.666;7.630;2023-03-24T01:51:37;99393.53;;;13.66;69.37
7524;BME280;3803;51.666;7.630;2023-03-24T01:52:01;99392.63;;;13.70;69.53
7524;BME280;3803;51.666;7.630;2023-03-24T01:52:28;99396.13;;;13.69;69.56
7524;BME280;3803;51.666;7.630;2023-03-24T01:52:50;99387.41;;;13.68;69.34
7524;BME280;3803;51.666;7.630;2023-03-24T01:53:11;99400.50;;;13.73;69.50
7524;BME280;3803;51.666;7.630;2023-03-24T01:53:33;99390.03;;;13.68;69.35
7524;BME280;3803;51.666;7.630;2023-03-24T01:54:04;99384.81;;;13.64;69.77
7524;BME280;3803;51.666;7.630;2023-03-24T01:54:32;99410.09;;;13.73;69.60
7524;BME280;3803;51.666;7.630;2023-03-24T01:55:03;99409.19;;;13.77;69.82
7524;BME280;3803;51.666;7.630;2023-03-24T01:55:28;99400.50;;;13.70;69.51
7524;BME280;3803;51.666;7.630;2023-03-24T01:55:51;99404.84;;;13.76;69.53
7524;BME280;3803;51.666;7.630;2023-03-24T01:56:15;99397.88;;;13.73;69.53
7524;BME280;3803;51.666;7.630;2023-03-24T01:56:39;99424.91;;;13.81;69.56
7524;BME280;3803;51.666;7.630;2023-03-24T01:57:05;99396.06;;;13.83;69.71
7524;BME280;3803;51.666;7.630;2023-03-24T01:57:35;99397.81;;;13.79;69.70
7524;BME280;3803;51.666;7.630;2023-03-24T01:58:16;99389.06;;;13.79;69.46
7524;BME280;3803;51.666;7.630;2023-03-24T01:59:01;99390.81;;;13.78;69.46
7524;BME280;3803;51.666;7.630;2023-03-24T01:59:40;99403.03;;;13.84;69.26
7524;BME280;3803;51.666;7.630;2023-03-24T02:00:12;99382.97;;;13.77;69.54
7524;BME280;3803;51.666;7.630;2023-03-24T02:00:52;99396.06;;;13.78;69.70
7524;BME280;3803;51.666;7.630;2023-03-24T02:01:52;99394.31;;;13.79;69.61
7524;BME280;3803;51.666;7.630;2023-03-24T02:02:34;99385.56;;;13.83;69.38
7524;BME280;3803;51.666;7.630;2023-03-24T02:02:59;99376.84;;;13.76;69.31
7524;BME280;3803;51.666;7.630;2023-03-24T02:03:25;99386.41;;;13.82;69.54
7524;BME280;3803;51.666;7.630;2023-03-24T02:03:50;99396.94;;;13.80;68.95
7524;BME280;3803;51.666;7.630;2023-03-24T02:04:12;99392.50;;;13.85;69.44
7524;BME280;3803;51.666;7.630;2023-03-24T02:04:39;99376.81;;;13.81;69.24
7524;BME280;3803;51.666;7.630;2023-03-24T02:05:05;99382.94;;;13.78;69.45
7524;BME280;3803;51.666;7.630;2023-03-24T02:05:37;99381.97;;;13.90;69.52
7524;BME280;3803;51.666;7.630;2023-03-24T02:05:58;99376.81;;;13.84;69.54
7524;BME280;3803;51.666;7.630;2023-03-24T02:06:21;99373.31;;;13.83;69.34
7524;BME280;3803;51.666;7.630;2023-03-24T02:06:46;99373.31;;;13.82;69.39
7524;BME280;3803;51.666;7.630;2023-03-24T02:07:17;99372.47;;;13.83;69.50
7524;BME280;3803;51.666;7.630;2023-03-24T02:07:49;99367.22;;;13.83;69.39
7524;BME280;3803;51.666;7.630;2023-03-24T02:08:25;99372.41;;;13.88;69.31
7524;BME280;3803;51.666;7.630;2023-03-24T02:08:52;99370.66;;;13.88;69.37
7524;BME280;3803;51.666;7.630;2023-03-24T02:09:14;99366.28;;;13.87;69.22